METAR AND TAF INFORMATION
METAR FOR EKYT
ADDS - METARS form results

(1526 UTC 20 January 2019)
Data provider http://aviationweather.gov/metar/data/
 
METAR text: EKYT 201520Z AUTO 21002KT 2900 BR FEW014/// BKN035/// BKN100/// 01/00 Q1018 R26L/290195
Conditions at: EKYT (ALBORG , DK) observed 1520 UTC 20 January 2019
Temperature: 1.0°C (34°F)
Dewpoint: 0.0°C (32°F) [RH = 93%]
Pressure (altimeter): 30.06 inches Hg (1018.0 mb)
Winds: from the SSW (210 degrees) at 2 MPH (2 knots; 1.0 m/s)
Visibility: 1.80 miles (2.90 km)
Ceiling: 3500 feet AGL
Clouds: few clouds at 1400 feet AGL
broken clouds at 3500 feet AGL
broken clouds at 10000 feet AGL
Weather: BR  (mist)

METAR text: EKYT 201518Z AUTO 21002KT 2900 BR FEW014/// BKN035/// BKN100/// 01/00 Q1018 R26L/290195
Conditions at: EKYT (ALBORG , DK) observed 1518 UTC 20 January 2019
Temperature: 1.0°C (34°F)
Dewpoint: 0.0°C (32°F) [RH = 93%]
Pressure (altimeter): 30.06 inches Hg (1018.0 mb)
Winds: from the SSW (210 degrees) at 2 MPH (2 knots; 1.0 m/s)
Visibility: 1.80 miles (2.90 km)
Ceiling: 3500 feet AGL
Clouds: few clouds at 1400 feet AGL
broken clouds at 3500 feet AGL
broken clouds at 10000 feet AGL
Weather: BR  (mist)

METAR text: EKYT 201517Z AUTO 21002KT 2900 BR FEW014/// BKN034/// BKN100/// 01/00 Q1018 R26L/290195
Conditions at: EKYT (ALBORG , DK) observed 1517 UTC 20 January 2019
Temperature: 1.0°C (34°F)
Dewpoint: 0.0°C (32°F) [RH = 93%]
Pressure (altimeter): 30.06 inches Hg (1018.0 mb)
Winds: from the SSW (210 degrees) at 2 MPH (2 knots; 1.0 m/s)
Visibility: 1.80 miles (2.90 km)
Ceiling: 3400 feet AGL
Clouds: few clouds at 1400 feet AGL
broken clouds at 3400 feet AGL
broken clouds at 10000 feet AGL
Weather: BR  (mist)

METAR text: EKYT 201450Z AUTO 22002KT 3300 BR FEW017/// BKN021/// 01/00 Q1018 R26L/290195
Conditions at: EKYT (ALBORG , DK) observed 1450 UTC 20 January 2019
Temperature: 1.0°C (34°F)
Dewpoint: 0.0°C (32°F) [RH = 93%]
Pressure (altimeter): 30.06 inches Hg (1018.0 mb)
Winds: from the SW (220 degrees) at 2 MPH (2 knots; 1.0 m/s)
Visibility: 2.05 miles (3.30 km)
Ceiling: 2100 feet AGL
Clouds: few clouds at 1700 feet AGL
broken clouds at 2100 feet AGL
Weather: BR  (mist)

Forecast for: EKYT (ALBORG , DK)
Text: TAF EKYT 201423Z 2015/2112 23007KT 8000 SCT020 BKN110
Forecast period: 1500 UTC 20 January 2019 to 0100 UTC 21 January 2019
Forecast type: FROM: standard forecast or significant change
Winds: from the SW (230 degrees) at 8 MPH (7 knots; 3.6 m/s)
Visibility: 5 miles (8 km)
Ceiling: 11000 feet AGL
Clouds: scattered clouds at 2000 feet AGL
broken clouds at 11000 feet AGL
Weather: no significant weather forecast for this period
Text: TEMPO 2015/2020 3000 -SHSNRA BR BKN012 SCT020TCU
Forecast period: 1500 to 2000 UTC 20 January 2019
Forecast type: TEMPORARY: The following changes expected for less than half the time period
Visibility: 1.86 miles (2.99 km)
Ceiling: 1200 feet AGL
Clouds: broken clouds at 1200 feet AGL
scattered clouds at 2000 feet AGL
Weather: -SHSN -SHRA BR  (light snow showers, light rain showers, mist)
Text: BECMG 2101/2103 21015KT 2000 SNRA BKN006
Forecast period: 0100 to 0300 UTC 21 January 2019
Forecast type: BECOMING: Conditions expected to become as follows by 0300 UTC 21 January 2019
Winds: from the SSW (210 degrees) at 17 MPH (15 knots; 7.7 m/s)
Visibility: 1.24 miles (2.00 km)
Ceiling: 600 feet AGL
Clouds: broken clouds at 600 feet AGL
Weather: SN RA  (moderate snow, moderate rain)
Text: BECMG 2103/2105 28012KT 9999 NSW SCT020
Forecast period: 0300 to 1200 UTC 21 January 2019
Forecast type: BECOMING: Conditions expected to become as follows by 0500 UTC 21 January 2019
Winds: from the W (280 degrees) at 14 MPH (12 knots; 6.2 m/s)
Visibility: 6 or more miles 10+ km)
Ceiling: at least 12,000 feet AGL
Clouds: scattered clouds at 2000 feet AGL
Weather: NSW  (no significant weather)

 AIRPORT MAP

Esri Leaflet Quickstart
 RUNWAY INFORMATION
Runway 08L Runway length 8707 ft Runway width 148 ft
Runway elevation 8 ft Runway displaced threshold 0 ft Runway heading 83
Runway 26R Runway length 8707 ft Runway width 148 ft
Runway elevation 10 ft Runway displaced threshold 0 ft Runway heading 263
Runway 08R Runway length 8363 ft Runway width 74 ft
Runway elevation 7 ft Runway displaced threshold 0 ft Runway heading 83
Runway 26L Runway length 8363 ft Runway width 74 ft
Runway elevation 10 ft Runway displaced threshold 0 ft Runway heading 263

 AIRPORT FREQUENCIES
Type APP Name APP Frequency 123.975 MHZ
Type ATIS Name ATIS Frequency 120.475 MHZ
Type MISC Name HANDLING Frequency 131.55 MHZ
Type TWR Name TWR Frequency 118.3 MHZ

 AIRPORT NEAR NAVIGATION AIDS
Type TACAN Name Aalborg Frequency 116700 KHZ
Type VOR-DME Name Aalborg Frequency 116700 KHZ
Type NDB Name Aalborg Frequency 398 KHZ



Powered by Virtual Airlines Manager [v2.6.2]